Time;durP1;ratioP1;P1;durP2;ratioP2;P2;SDS_P1;SDS_P2;PMS_P1;PMS_P2;Temp;Humidity;BMP_temperature;BMP_pressure;BME280_temperature;BME280_humidity;BME280_pressure;Samples;Min_cycle;Max_cycle;Signal;HPM_P1;HPM_P2
2021/03/15 00:00:09;;;;;;;9.87;7.30;;;6.30;99.90;;;;;;5033872;28;20199;-69
2021/03/15 00:02:34;;;;;;;8.20;6.90;;;6.40;99.90;;;;;;5034335;28;20190;-69
2021/03/15 00:05:00;;;;;;;8.90;6.30;;;6.40;99.90;;;;;;5034004;28;20457;-71
2021/03/15 00:07:25;;;;;;;19.37;7.50;;;6.40;99.90;;;;;;5033957;28;20199;-69
2021/03/15 00:09:51;;;;;;;11.27;6.83;;;6.40;99.90;;;;;;5033479;28;20557;-70
2021/03/15 00:12:16;;;;;;;9.63;7.50;;;6.40;99.90;;;;;;5051431;28;20533;-70
2021/03/15 00:14:42;;;;;;;10.90;8.03;;;6.40;99.90;;;;;;5053685;28;20170;-70
2021/03/15 00:17:08;;;;;;;9.13;7.77;;;6.40;99.90;;;;;;5052463;28;20665;-71
2021/03/15 00:19:33;;;;;;;12.73;8.10;;;6.40;99.90;;;;;;5053554;28;20254;-71
2021/03/15 00:21:59;;;;;;;9.67;7.97;;;6.40;99.90;;;;;;5053596;28;20209;-71
2021/03/15 00:24:24;;;;;;;8.93;7.10;;;6.40;99.90;;;;;;5053750;28;20170;-70
2021/03/15 00:26:50;;;;;;;11.17;7.70;;;6.40;99.90;;;;;;5053935;28;20293;-69
2021/03/15 00:29:15;;;;;;;11.80;7.80;;;6.40;99.90;;;;;;5053866;28;20249;-70
2021/03/15 00:31:41;;;;;;;11.20;7.97;;;6.40;99.90;;;;;;5054281;28;20636;-70
2021/03/15 00:34:06;;;;;;;12.30;7.57;;;6.40;99.90;;;;;;5053677;28;20162;-70
2021/03/15 00:36:32;;;;;;;12.67;8.73;;;6.40;99.90;;;;;;5052482;28;20202;-70
2021/03/15 00:38:57;;;;;;;11.43;8.00;;;6.50;99.90;;;;;;5053585;28;20178;-70
2021/03/15 00:41:23;;;;;;;15.43;8.73;;;6.50;99.90;;;;;;5053409;28;20214;-70
2021/03/15 00:43:48;;;;;;;12.07;8.23;;;6.50;99.90;;;;;;5053613;28;20174;-70
2021/03/15 00:46:14;;;;;;;12.93;10.00;;;6.40;99.90;;;;;;5053910;28;20174;-70
2021/03/15 00:48:39;;;;;;;15.90;9.40;;;6.40;99.90;;;;;;5053474;28;20245;-70
2021/03/15 00:51:05;;;;;;;9.73;8.73;;;6.40;99.90;;;;;;5053364;28;20292;-70
2021/03/15 00:53:30;;;;;;;11.40;9.00;;;6.40;99.90;;;;;;5052250;28;20184;-70
2021/03/15 00:55:56;;;;;;;13.10;9.10;;;6.30;99.90;;;;;;5043082;28;20508;-70
2021/03/15 00:58:22;;;;;;;15.87;8.90;;;6.30;99.90;;;;;;5051619;28;20257;-70
2021/03/15 01:00:49;;;;;;;10.77;8.33;;;6.30;99.90;;;;;;5052036;28;20654;-70
2021/03/15 01:03:15;;;;;;;11.43;8.57;;;6.40;99.90;;;;;;5053298;28;20181;-70
2021/03/15 01:05:43;;;;;;;13.30;9.83;;;6.40;99.90;;;;;;5051515;28;20493;-70
2021/03/15 01:08:11;;;;;;;17.20;11.27;;;6.40;99.90;;;;;;5053987;28;20518;-70
2021/03/15 01:10:39;;;;;;;13.30;8.70;;;6.40;99.90;;;;;;5053923;28;20540;-70
2021/03/15 01:13:05;;;;;;;13.30;9.43;;;6.40;99.90;;;;;;5053696;28;20421;-70
2021/03/15 01:15:31;;;;;;;13.87;9.93;;;6.40;99.90;;;;;;5057031;28;20418;-70
2021/03/15 01:17:57;;;;;;;14.53;8.97;;;6.40;99.90;;;;;;5064769;28;20425;-70
2021/03/15 01:20:23;;;;;;;10.50;8.40;;;6.40;99.90;;;;;;5057055;28;20433;-70
2021/03/15 01:22:48;;;;;;;10.27;8.53;;;6.50;99.90;;;;;;5060233;28;20184;-70
2021/03/15 01:25:16;;;;;;;13.37;8.83;;;6.40;99.90;;;;;;5055759;28;20412;-70
2021/03/15 01:27:41;;;;;;;13.13;8.47;;;6.50;99.90;;;;;;5043560;28;20205;-70
2021/03/15 01:30:14;;;;;;;14.80;8.57;;;6.40;99.90;;;;;;5052743;28;20448;-70
2021/03/15 01:32:40;;;;;;;12.83;8.00;;;6.40;99.90;;;;;;5053196;28;20174;-70
2021/03/15 01:35:07;;;;;;;10.90;7.47;;;6.30;99.90;;;;;;5053376;28;20413;-70
2021/03/15 01:37:33;;;;;;;8.57;7.30;;;6.30;99.90;;;;;;5041003;28;20413;-70
2021/03/15 01:39:58;;;;;;;11.60;7.40;;;6.30;99.90;;;;;;5032932;28;20433;-70
2021/03/15 01:42:24;;;;;;;9.93;6.73;;;6.40;99.90;;;;;;5051534;28;20452;-70
2021/03/15 01:44:50;;;;;;;10.43;6.83;;;6.40;99.90;;;;;;5052866;28;20205;-70
2021/03/15 01:47:17;;;;;;;12.70;6.93;;;6.30;99.90;;;;;;5036154;28;20197;-70
2021/03/15 01:49:43;;;;;;;8.73;6.33;;;6.30;99.90;;;;;;5032762;28;20282;-70
2021/03/15 01:52:09;;;;;;;8.27;6.10;;;6.30;99.90;;;;;;5031916;28;20508;-70
2021/03/15 01:54:34;;;;;;;10.50;6.27;;;6.30;99.90;;;;;;5032876;28;20751;-70
2021/03/15 01:57:00;;;;;;;7.30;5.97;;;6.30;99.90;;;;;;5033214;28;20500;-70
2021/03/15 01:59:26;;;;;;;6.47;5.77;;;6.40;99.90;;;;;;5033542;28;20179;-70
2021/03/15 02:01:51;;;;;;;9.53;7.37;;;6.40;99.90;;;;;;5033925;28;20206;-70
2021/03/15 02:04:17;;;;;;;7.00;6.27;;;6.30;99.90;;;;;;5032887;28;20183;-70
2021/03/15 02:06:44;;;;;;;14.13;7.20;;;6.20;99.90;;;;;;5045447;28;20210;-70
2021/03/15 02:09:10;;;;;;;8.93;7.17;;;6.30;99.90;;;;;;5050751;28;20421;-70
2021/03/15 02:11:56;;;;;;;8.80;6.57;;;6.30;99.90;;;;;;5052304;28;21013;-70
2021/03/15 02:14:55;;;;;;;13.03;7.30;;;6.40;99.90;;;;;;5052231;28;20417;-70
2021/03/15 02:18:19;;;;;;;8.87;7.00;;;6.40;99.90;;;;;;5056116;28;20421;-70
2021/03/15 02:21:05;;;;;;;9.03;7.13;;;6.30;99.90;;;;;;5069920;28;20491;-70
2021/03/15 02:23:56;;;;;;;8.50;6.77;;;6.20;99.90;;;;;;5074132;28;20415;-70
2021/03/15 02:27:04;;;;;;;7.50;6.50;;;6.30;99.90;;;;;;5073333;28;20940;-70
2021/03/15 02:29:48;;;;;;;7.63;6.60;;;6.20;99.90;;;;;;5058541;28;20932;-70
2021/03/15 02:32:17;;;;;;;9.37;6.50;;;6.20;99.90;;;;;;5053969;28;20507;-70
2021/03/15 02:35:04;;;;;;;9.17;6.50;;;6.20;99.90;;;;;;5054131;28;20801;-70
2021/03/15 02:37:36;;;;;;;8.27;6.20;;;6.20;99.90;;;;;;5037302;28;20420;-70
2021/03/15 02:40:43;;;;;;;7.20;6.47;;;6.20;99.90;;;;;;5054563;28;20813;-70
2021/03/15 02:43:16;;;;;;;8.70;6.77;;;6.30;99.90;;;;;;5053829;28;20424;-70
2021/03/15 02:45:44;;;;;;;7.33;6.27;;;6.30;99.90;;;;;;5053857;28;20421;-70
2021/03/15 02:48:12;;;;;;;11.13;7.60;;;6.30;99.90;;;;;;5053242;28;20471;-70
2021/03/15 02:50:40;;;;;;;9.10;7.30;;;6.40;99.90;;;;;;5056239;28;20451;-70
2021/03/15 02:53:09;;;;;;;12.20;7.53;;;6.30;99.90;;;;;;5073999;28;20422;-70
2021/03/15 02:55:36;;;;;;;7.43;6.67;;;6.30;99.90;;;;;;5059590;28;21002;-70
2021/03/15 02:58:04;;;;;;;10.30;6.47;;;6.30;99.90;;;;;;5035224;28;20492;-70
2021/03/15 03:00:31;;;;;;;6.20;5.60;;;6.20;99.90;;;;;;5045061;28;20482;-70
2021/03/15 03:02:58;;;;;;;8.17;6.20;;;6.20;99.90;;;;;;5053335;28;20438;-70
2021/03/15 03:05:24;;;;;;;7.00;6.30;;;6.20;99.90;;;;;;5055108;28;20421;-70
2021/03/15 03:07:53;;;;;;;6.50;4.97;;;6.20;99.90;;;;;;5055480;28;20452;-71
2021/03/15 03:10:22;;;;;;;4.63;4.23;;;6.10;99.90;;;;;;5055161;28;20433;-70
2021/03/15 03:12:50;;;;;;;8.70;4.97;;;6.00;99.90;;;;;;5053367;28;20447;-70
2021/03/15 03:15:19;;;;;;;6.50;3.93;;;5.90;99.90;;;;;;5054833;28;20412;-69
2021/03/15 03:17:47;;;;;;;4.27;3.80;;;5.70;99.90;;;;;;5055730;28;20416;-70
2021/03/15 03:20:16;;;;;;;6.67;4.37;;;5.70;99.90;;;;;;5054930;28;20438;-70
2021/03/15 03:22:45;;;;;;;4.57;4.17;;;5.70;99.90;;;;;;5053191;28;20854;-70
2021/03/15 03:25:19;;;;;;;5.00;4.37;;;5.60;99.90;;;;;;5054718;28;20420;-70
2021/03/15 03:27:54;;;;;;;5.80;4.80;;;5.60;99.90;;;;;;5052410;28;20453;-70
2021/03/15 03:30:31;;;;;;;6.40;4.87;;;5.60;99.90;;;;;;5054609;28;20472;-70
2021/03/15 03:33:05;;;;;;;5.80;5.30;;;5.70;99.90;;;;;;5051614;28;20423;-70
2021/03/15 03:35:31;;;;;;;6.43;5.30;;;5.80;99.90;;;;;;5054591;28;20415;-70
2021/03/15 03:37:57;;;;;;;5.23;4.70;;;5.90;99.90;;;;;;5054513;28;20769;-70
2021/03/15 03:40:24;;;;;;;6.03;4.90;;;6.00;99.90;;;;;;5054928;28;20826;-70
2021/03/15 03:42:50;;;;;;;5.67;4.50;;;6.10;99.90;;;;;;5055072;28;20466;-70
2021/03/15 03:45:15;;;;;;;8.20;5.00;;;6.20;99.90;;;;;;5053217;28;20445;-70
2021/03/15 03:47:42;;;;;;;5.63;5.03;;;6.20;99.90;;;;;;5054676;28;20971;-70
2021/03/15 03:50:30;;;;;;;6.30;5.60;;;6.20;99.90;;;;;;5053923;28;20194;-70
2021/03/15 03:52:58;;;;;;;6.40;5.60;;;6.10;99.90;;;;;;5053934;28;20488;-70
2021/03/15 03:55:29;;;;;;;5.77;5.17;;;6.00;99.90;;;;;;5052670;28;20440;-70
2021/03/15 03:57:57;;;;;;;6.00;5.40;;;6.00;99.90;;;;;;5054524;28;20447;-70
2021/03/15 04:00:23;;;;;;;8.80;6.17;;;5.90;99.90;;;;;;5054174;28;20442;-70
2021/03/15 04:02:56;;;;;;;8.80;6.37;;;5.80;99.90;;;;;;5054341;28;20419;-70
2021/03/15 04:05:27;;;;;;;6.20;5.40;;;5.80;99.90;;;;;;5052169;28;20543;-70
2021/03/15 04:08:05;;;;;;;7.23;5.33;;;5.70;99.90;;;;;;5054210;28;20929;-71
2021/03/15 04:10:31;;;;;;;8.53;6.00;;;5.70;99.90;;;;;;5053967;28;20436;-70
2021/03/15 04:13:10;;;;;;;8.90;6.00;;;5.60;99.90;;;;;;5054935;28;20407;-70
2021/03/15 04:15:41;;;;;;;8.70;6.70;;;5.60;99.90;;;;;;5051799;28;20517;-70
2021/03/15 04:18:10;;;;;;;7.67;6.80;;;5.60;99.90;;;;;;5053702;28;20477;-71
2021/03/15 04:20:37;;;;;;;8.67;6.67;;;5.60;99.90;;;;;;5053792;28;20451;-70
2021/03/15 04:23:07;;;;;;;7.50;6.80;;;5.60;99.90;;;;;;5054292;28;20471;-70
2021/03/15 04:25:35;;;;;;;7.63;6.87;;;5.60;99.90;;;;;;5053891;28;20459;-70
2021/03/15 04:28:03;;;;;;;6.97;6.03;;;5.60;99.90;;;;;;5040101;28;20484;-71
2021/03/15 04:30:29;;;;;;;9.10;6.27;;;5.60;99.90;;;;;;5038233;28;20461;-70
2021/03/15 04:32:57;;;;;;;7.10;5.63;;;5.70;99.90;;;;;;5034170;28;20433;-70
2021/03/15 04:35:26;;;;;;;9.93;6.30;;;5.70;99.90;;;;;;5034164;28;20215;-71
2021/03/15 04:37:53;;;;;;;6.53;5.73;;;5.70;99.90;;;;;;5052195;28;20455;-70
2021/03/15 04:40:23;;;;;;;5.93;4.67;;;5.70;99.90;;;;;;5053587;28;20945;-70
2021/03/15 04:42:49;;;;;;;5.87;4.90;;;5.80;99.90;;;;;;5053766;28;20889;-70
2021/03/15 04:45:17;;;;;;;6.40;5.37;;;5.70;99.90;;;;;;5053137;28;20412;-70
2021/03/15 04:47:44;;;;;;;6.33;5.50;;;5.70;99.90;;;;;;5043464;28;20571;-70
2021/03/15 04:50:11;;;;;;;5.77;4.73;;;5.70;99.90;;;;;;5050954;28;20979;-71
2021/03/15 04:52:38;;;;;;;6.20;5.27;;;5.60;99.90;;;;;;5050825;28;20483;-70
2021/03/15 04:55:05;;;;;;;6.67;5.00;;;5.60;99.90;;;;;;5058246;28;20435;-70
2021/03/15 04:57:32;;;;;;;8.50;6.20;;;5.60;99.90;;;;;;5068007;28;20431;-71
2021/03/15 05:00:01;;;;;;;10.00;6.10;;;5.50;99.90;;;;;;5033245;28;20477;-70
2021/03/15 05:02:27;;;;;;;9.00;5.87;;;5.50;99.90;;;;;;5033696;28;20467;-70
2021/03/15 05:04:53;;;;;;;7.63;5.87;;;5.50;99.90;;;;;;5042912;28;20528;-70
2021/03/15 05:07:20;;;;;;;8.27;6.37;;;5.40;99.90;;;;;;5052050;28;20456;-70
2021/03/15 05:09:48;;;;;;;7.90;7.10;;;5.40;99.90;;;;;;5052786;28;20802;-70
2021/03/15 05:12:15;;;;;;;7.60;6.80;;;5.50;99.90;;;;;;5041901;28;20917;-70
2021/03/15 05:14:41;;;;;;;8.47;6.90;;;5.50;99.90;;;;;;5044990;28;20432;-69
2021/03/15 05:17:11;;;;;;;10.37;7.83;;;5.50;99.90;;;;;;5043376;28;20895;-70
2021/03/15 05:19:39;;;;;;;12.80;7.90;;;5.40;99.90;;;;;;5052699;28;20178;-70
2021/03/15 05:22:06;;;;;;;10.50;8.00;;;5.30;99.90;;;;;;5053234;28;20473;-70
2021/03/15 05:24:32;;;;;;;11.17;8.93;;;5.40;99.90;;;;;;5053764;28;20798;-70
2021/03/15 05:26:59;;;;;;;12.03;8.43;;;5.40;99.90;;;;;;5053659;28;20453;-70
2021/03/15 05:29:25;;;;;;;9.23;7.43;;;5.40;99.90;;;;;;5052701;28;20466;-71
2021/03/15 05:31:51;;;;;;;10.20;7.57;;;5.40;99.90;;;;;;5053510;28;20428;-70
2021/03/15 05:34:21;;;;;;;7.73;6.73;;;5.40;99.90;;;;;;5051796;28;20208;-70
2021/03/15 05:36:47;;;;;;;9.63;7.70;;;5.40;99.90;;;;;;5053158;28;20491;-69
2021/03/15 05:39:13;;;;;;;8.70;7.20;;;5.40;99.90;;;;;;5053027;28;20419;-70
2021/03/15 05:41:57;;;;;;;7.90;7.10;;;5.30;99.90;;;;;;5053063;28;20934;-70
2021/03/15 05:44:47;;;;;;;10.50;7.27;;;5.30;99.90;;;;;;5053241;28;20432;-70
2021/03/15 05:47:37;;;;;;;8.40;6.83;;;5.30;99.90;;;;;;5053256;28;20548;-70
2021/03/15 05:50:40;;;;;;;13.43;7.03;;;5.40;99.90;;;;;;5053739;28;20432;-70
2021/03/15 05:53:43;;;;;;;10.10;7.23;;;5.40;99.90;;;;;;5057173;28;20407;-71
2021/03/15 05:56:18;;;;;;;7.97;6.67;;;5.30;99.90;;;;;;5056806;28;20591;-70
2021/03/15 05:59:10;;;;;;;7.87;6.47;;;5.30;99.90;;;;;;5057017;28;20891;-71
2021/03/15 06:01:50;;;;;;;7.90;6.53;;;5.30;99.90;;;;;;5056930;28;20500;-70
2021/03/15 06:04:43;;;;;;;7.07;6.37;;;5.20;99.90;;;;;;5055900;28;20455;-70
2021/03/15 06:07:12;;;;;;;6.90;5.83;;;5.30;99.90;;;;;;5056854;28;20448;-70
2021/03/15 06:10:03;;;;;;;7.10;5.93;;;5.40;99.90;;;;;;5056374;28;20406;-70
2021/03/15 06:12:37;;;;;;;7.00;6.27;;;5.40;99.90;;;;;;5056367;28;20550;-70
2021/03/15 06:15:04;;;;;;;7.53;6.43;;;5.40;99.90;;;;;;5056850;28;20425;-70
2021/03/15 06:17:31;;;;;;;7.47;6.20;;;5.50;99.90;;;;;;5056879;28;20479;-71
2021/03/15 06:19:58;;;;;;;7.67;6.80;;;5.50;99.90;;;;;;5055936;28;20428;-70
2021/03/15 06:22:24;;;;;;;6.70;6.00;;;5.60;99.90;;;;;;5056145;28;20436;-70
2021/03/15 06:24:50;;;;;;;10.03;6.70;;;5.60;99.90;;;;;;5056400;28;20871;-70
2021/03/15 06:27:17;;;;;;;6.73;5.83;;;5.70;99.90;;;;;;5056570;28;20508;-70
2021/03/15 06:29:43;;;;;;;6.73;5.50;;;5.60;99.90;;;;;;5055603;28;20455;-70
2021/03/15 06:32:10;;;;;;;7.63;6.20;;;5.60;99.90;;;;;;5056422;28;20795;-71
2021/03/15 06:34:37;;;;;;;8.37;5.77;;;5.60;99.90;;;;;;5054972;28;20288;-68
2021/03/15 06:37:02;;;;;;;8.60;7.37;;;5.50;99.90;;;;;;5056285;28;20421;-69
2021/03/15 06:39:29;;;;;;;9.60;6.53;;;5.40;99.90;;;;;;5055714;28;20776;-70
2021/03/15 06:41:56;;;;;;;8.77;6.33;;;5.50;99.90;;;;;;5056050;28;20502;-70
2021/03/15 06:44:22;;;;;;;6.90;5.87;;;5.60;99.90;;;;;;5055962;28;20452;-70
2021/03/15 06:46:47;;;;;;;8.00;6.60;;;5.60;99.90;;;;;;5055822;28;20535;-70
2021/03/15 06:49:13;;;;;;;9.67;6.83;;;5.70;99.90;;;;;;5055497;28;20529;-70
2021/03/15 06:51:59;;;;;;;9.10;6.90;;;5.80;99.90;;;;;;5055891;28;20190;-70
2021/03/15 06:54:25;;;;;;;8.80;7.60;;;5.70;99.90;;;;;;5055869;28;20190;-70
2021/03/15 06:57:11;;;;;;;10.50;6.63;;;5.70;99.90;;;;;;5055662;28;20407;-70
2021/03/15 07:00:03;;;;;;;9.23;6.23;;;5.70;99.90;;;;;;5057466;28;20517;-70
2021/03/15 07:02:30;;;;;;;11.57;7.90;;;5.60;99.90;;;;;;5057538;28;20464;-70
2021/03/15 07:05:10;;;;;;;10.70;7.80;;;5.60;99.90;;;;;;5063550;28;20531;-70
2021/03/15 07:07:49;;;;;;;10.83;7.90;;;5.60;99.90;;;;;;5062285;28;20467;-70
2021/03/15 07:10:20;;;;;;;11.70;7.97;;;5.70;99.90;;;;;;5063703;28;20457;-70
2021/03/15 07:12:47;;;;;;;9.47;7.33;;;5.70;99.90;;;;;;5063892;28;20762;-71
2021/03/15 07:15:13;;;;;;;10.03;8.00;;;5.80;99.90;;;;;;5062703;28;20530;-69
2021/03/15 07:17:38;;;;;;;12.03;8.37;;;5.90;99.90;;;;;;5063198;28;20419;-70
2021/03/15 07:20:06;;;;;;;13.17;8.03;;;6.00;99.90;;;;;;5062985;28;20442;-70
2021/03/15 07:22:32;;;;;;;11.10;8.17;;;5.90;99.90;;;;;;5064084;28;20526;-70
2021/03/15 07:25:13;;;;;;;11.37;7.93;;;5.80;99.90;;;;;;5063370;28;20950;-69
2021/03/15 07:27:42;;;;;;;13.10;7.90;;;5.90;99.90;;;;;;5062882;28;20467;-71
2021/03/15 07:30:29;;;;;;;14.27;9.23;;;6.00;99.90;;;;;;5062344;28;20943;-70
2021/03/15 07:32:57;;;;;;;14.40;8.73;;;5.90;99.90;;;;;;5063448;28;20504;-70
2021/03/15 07:35:32;;;;;;;12.60;7.47;;;5.90;99.90;;;;;;5062341;28;20442;-71
2021/03/15 07:37:58;;;;;;;9.37;7.30;;;5.90;99.90;;;;;;5062243;28;20431;-71
2021/03/15 07:40:32;;;;;;;9.70;6.90;;;5.80;99.90;;;;;;5062719;28;20541;-70
2021/03/15 07:43:06;;;;;;;13.27;8.20;;;5.80;99.90;;;;;;5062264;28;20419;-71
2021/03/15 07:45:51;;;;;;;18.07;9.43;;;5.90;99.90;;;;;;5063037;28;20446;-70
2021/03/15 07:48:22;;;;;;;12.00;9.60;;;6.00;99.90;;;;;;5061450;28;20465;-71
2021/03/15 07:51:02;;;;;;;15.97;10.97;;;6.10;99.90;;;;;;5061756;28;20535;-70
2021/03/15 07:54:01;;;;;;;13.67;10.23;;;6.10;99.90;;;;;;5062081;28;20482;-71
2021/03/15 07:56:27;;;;;;;14.30;10.57;;;6.00;99.90;;;;;;5062999;28;20446;-70
2021/03/15 07:58:53;;;;;;;13.13;11.33;;;6.00;99.90;;;;;;5061713;28;20529;-70
2021/03/15 08:01:20;;;;;;;17.87;11.73;;;6.00;99.90;;;;;;5062966;28;20440;-71
2021/03/15 08:03:46;;;;;;;13.53;11.00;;;6.10;99.90;;;;;;5063402;28;20465;-70
2021/03/15 08:06:12;;;;;;;16.17;12.27;;;6.00;99.90;;;;;;5063444;28;20439;-70
2021/03/15 08:08:39;;;;;;;17.60;12.00;;;6.20;99.90;;;;;;5061963;28;20241;-70
2021/03/15 08:11:07;;;;;;;18.80;13.13;;;6.40;99.90;;;;;;5064655;28;20462;-70
2021/03/15 08:14:00;;;;;;;15.50;11.07;;;6.50;99.90;;;;;;5069643;28;20933;-70
2021/03/15 08:16:28;;;;;;;19.47;12.90;;;6.50;99.90;;;;;;5068382;28;20444;-70
2021/03/15 08:18:56;;;;;;;20.10;13.80;;;6.60;99.90;;;;;;5063075;28;20420;-70
2021/03/15 08:21:37;;;;;;;14.97;11.63;;;6.70;99.90;;;;;;5064155;28;20447;-71
2021/03/15 08:24:03;;;;;;;13.97;10.60;;;6.70;99.90;;;;;;5062103;28;20824;-69
2021/03/15 08:26:30;;;;;;;15.17;10.80;;;6.80;99.90;;;;;;5061754;28;20778;-69
2021/03/15 08:28:58;;;;;;;16.40;11.50;;;6.90;99.90;;;;;;5062170;28;20420;-71
2021/03/15 08:31:38;;;;;;;17.20;11.90;;;6.90;99.90;;;;;;5061306;28;20432;-69
2021/03/15 08:34:04;;;;;;;17.90;12.00;;;6.80;99.90;;;;;;5061340;28;20415;-71
2021/03/15 08:36:42;;;;;;;18.87;12.97;;;6.70;99.90;;;;;;5061809;28;20436;-71
2021/03/15 08:39:37;;;;;;;15.83;12.30;;;6.60;99.90;;;;;;5060781;28;20416;-70
2021/03/15 08:42:08;;;;;;;12.93;11.00;;;6.70;99.90;;;;;;5060725;28;20414;-70
2021/03/15 08:44:42;;;;;;;15.70;10.80;;;6.60;99.90;;;;;;5061325;28;20412;-70
2021/03/15 08:47:09;;;;;;;14.00;10.80;;;6.60;99.90;;;;;;5059504;28;20471;-70
2021/03/15 08:49:36;;;;;;;16.17;10.40;;;6.60;99.90;;;;;;5061737;28;20489;-70
2021/03/15 08:52:01;;;;;;;18.27;11.73;;;6.60;99.90;;;;;;5062123;28;20419;-70
2021/03/15 08:54:46;;;;;;;17.93;11.70;;;6.60;99.90;;;;;;5061440;28;20473;-71
2021/03/15 08:57:31;;;;;;;14.97;9.53;;;6.60;99.90;;;;;;5061396;28;20197;-71
2021/03/15 08:59:57;;;;;;;12.13;9.70;;;6.50;99.90;;;;;;5061689;28;20841;-70
2021/03/15 09:02:38;;;;;;;11.67;9.17;;;6.50;99.90;;;;;;5060603;28;20427;-70
2021/03/15 09:05:27;;;;;;;12.73;8.00;;;6.40;99.90;;;;;;5061546;28;20444;-71
2021/03/15 09:07:55;;;;;;;12.60;8.00;;;6.50;99.90;;;;;;5060637;28;20526;-72
2021/03/15 09:10:24;;;;;;;11.57;8.17;;;6.60;99.90;;;;;;5062131;28;20436;-69
2021/03/15 09:13:11;;;;;;;10.57;8.23;;;6.70;99.90;;;;;;5061198;28;20490;-70
2021/03/15 09:15:41;;;;;;;9.57;8.20;;;6.80;99.90;;;;;;5061253;28;20408;-70
2021/03/15 09:18:47;;;;;;;9.27;8.00;;;6.80;99.90;;;;;;5061405;28;20436;-70
2021/03/15 09:21:28;;;;;;;13.70;8.93;;;6.90;99.90;;;;;;5077313;28;20471;-72
2021/03/15 09:24:00;;;;;;;11.70;8.17;;;7.10;99.90;;;;;;5061348;28;20443;-71
2021/03/15 09:26:26;;;;;;;13.80;8.03;;;7.10;99.90;;;;;;5083058;28;20442;-70
2021/03/15 09:28:52;;;;;;;12.20;7.20;;;7.10;99.90;;;;;;5083047;28;20462;-70
2021/03/15 09:31:18;;;;;;;16.47;6.20;;;7.20;99.90;;;;;;5082779;28;20213;-69
2021/03/15 09:33:44;;;;;;;8.97;5.70;;;7.00;99.90;;;;;;5083263;28;20399;-71
2021/03/15 09:36:10;;;;;;;9.57;5.97;;;7.00;99.90;;;;;;5082972;28;20415;-71
2021/03/15 09:38:38;;;;;;;10.60;5.60;;;7.10;99.90;;;;;;5082827;28;20779;-70
2021/03/15 09:41:05;;;;;;;8.43;5.73;;;6.90;99.90;;;;;;5082107;28;20442;-71
2021/03/15 09:43:32;;;;;;;10.10;5.80;;;6.70;99.90;;;;;;5082745;28;20954;-70
2021/03/15 09:46:04;;;;;;;10.23;6.20;;;6.80;99.90;;;;;;5081578;28;20497;-71
2021/03/15 09:48:31;;;;;;;7.50;5.77;;;6.80;99.90;;;;;;5081946;28;20469;-71
2021/03/15 09:50:59;;;;;;;13.00;6.50;;;6.80;99.90;;;;;;5082443;28;20799;-71
2021/03/15 09:53:25;;;;;;;12.40;6.00;;;6.70;99.90;;;;;;5082478;28;20505;-71
2021/03/15 09:56:05;;;;;;;8.30;6.93;;;6.60;99.90;;;;;;5082495;28;20418;-70
2021/03/15 09:58:30;;;;;;;7.20;6.00;;;6.70;99.90;;;;;;5067660;28;20450;-70
2021/03/15 10:00:56;;;;;;;9.10;6.90;;;6.80;99.90;;;;;;5064615;28;20440;-71
2021/03/15 10:03:24;;;;;;;8.47;6.27;;;7.00;99.90;;;;;;5064682;28;20181;-70
2021/03/15 10:05:57;;;;;;;14.23;6.80;;;7.10;99.90;;;;;;5064681;28;20173;-71
2021/03/15 10:08:23;;;;;;;8.80;6.77;;;7.20;99.90;;;;;;5063104;28;20537;-71
2021/03/15 10:10:50;;;;;;;10.90;6.63;;;7.30;99.90;;;;;;5064314;28;20983;-69
2021/03/15 10:13:16;;;;;;;13.70;7.10;;;7.40;99.90;;;;;;5064699;28;20509;-71
2021/03/15 10:15:42;;;;;;;13.47;6.30;;;7.60;99.90;;;;;;5065044;28;20412;-71
2021/03/15 10:18:07;;;;;;;9.27;5.40;;;7.60;99.90;;;;;;5063677;28;20205;-71
2021/03/15 10:20:36;;;;;;;7.73;6.27;;;7.60;99.90;;;;;;5064614;28;21003;-71
2021/03/15 10:23:33;;;;;;;12.10;7.17;;;7.60;99.90;;;;;;5063430;28;20272;-71
2021/03/15 10:26:01;;;;;;;7.80;5.73;;;7.50;99.90;;;;;;5080489;28;20941;-70
2021/03/15 10:28:29;;;;;;;5.40;4.00;;;7.50;99.90;;;;;;5080415;28;20467;-69
2021/03/15 10:30:55;;;;;;;4.93;3.77;;;7.60;99.90;;;;;;5063696;28;20823;-70
2021/03/15 10:33:24;;;;;;;7.10;4.33;;;7.60;99.90;;;;;;5081551;28;20430;-71
2021/03/15 10:35:50;;;;;;;6.20;3.60;;;7.50;99.90;;;;;;5063532;28;20446;-71
2021/03/15 10:38:18;;;;;;;5.87;3.20;;;7.60;99.90;;;;;;5081131;28;20525;-69
2021/03/15 10:40:44;;;;;;;6.17;2.60;;;7.60;99.90;;;;;;5080479;28;20476;-70
2021/03/15 10:43:24;;;;;;;6.90;3.23;;;7.50;99.90;;;;;;5080710;28;20415;-71
2021/03/15 10:45:50;;;;;;;5.10;3.30;;;7.40;99.90;;;;;;5063757;28;20448;-71
2021/03/15 10:48:15;;;;;;;6.27;3.93;;;7.40;99.90;;;;;;5080171;28;20479;-70
2021/03/15 10:50:45;;;;;;;5.87;3.70;;;7.60;99.90;;;;;;5080215;28;20209;-71
2021/03/15 10:53:15;;;;;;;4.77;2.80;;;7.70;99.90;;;;;;5080520;28;20192;-71
2021/03/15 10:55:41;;;;;;;4.73;3.67;;;7.80;99.90;;;;;;5080573;28;20435;-70
2021/03/15 10:58:08;;;;;;;4.90;3.10;;;7.80;99.90;;;;;;5079934;28;20444;-69
2021/03/15 11:00:40;;;;;;;7.37;3.43;;;8.00;99.90;;;;;;5080291;28;20208;-69
2021/03/15 11:03:06;;;;;;;6.47;3.20;;;8.10;99.90;;;;;;5064329;28;20781;-71
2021/03/15 11:05:32;;;;;;;6.93;3.15;;;8.30;99.90;;;;;;5061004;28;20414;-70
2021/03/15 11:07:58;;;;;;;7.50;3.10;;;8.30;99.90;;;;;;5061743;28;20218;-72
2021/03/15 11:10:32;;;;;;;4.27;3.10;;;8.20;99.90;;;;;;5062304;28;20209;-71
2021/03/15 11:13:00;;;;;;;6.90;2.80;;;8.20;99.90;;;;;;5062763;28;20411;-71
2021/03/15 11:15:32;;;;;;;4.93;2.80;;;8.20;99.90;;;;;;5062668;28;20415;-71
2021/03/15 11:18:10;;;;;;;6.03;2.83;;;8.30;99.90;;;;;;5061183;28;20887;-70
2021/03/15 11:20:53;;;;;;;5.20;2.40;;;8.30;99.90;;;;;;5041222;28;559843;-70
2021/03/15 11:23:31;;;;;;;5.67;3.50;;;8.20;99.90;;;;;;5062862;28;20427;-72
2021/03/15 11:26:14;;;;;;;7.50;2.77;;;8.20;99.90;;;;;;5063252;28;20443;-71
2021/03/15 11:28:41;;;;;;;7.90;4.03;;;8.30;99.90;;;;;;5062089;28;20476;-70
2021/03/15 11:31:16;;;;;;;7.87;4.27;;;8.40;99.90;;;;;;5063447;28;20442;-70
2021/03/15 11:33:50;;;;;;;5.20;2.90;;;8.40;99.90;;;;;;5062259;28;20771;-71
2021/03/15 11:36:17;;;;;;;5.30;2.33;;;8.50;99.90;;;;;;5063158;28;20421;-71
2021/03/15 11:38:53;;;;;;;6.53;3.27;;;8.50;99.90;;;;;;5061944;28;20444;-72
2021/03/15 11:41:21;;;;;;;6.43;2.90;;;8.30;99.90;;;;;;5062225;28;20435;-71
2021/03/15 11:43:47;;;;;;;8.37;4.00;;;8.30;99.90;;;;;;5062826;28;20421;-72
2021/03/15 11:46:12;;;;;;;4.00;2.90;;;8.30;99.90;;;;;;5061184;28;20894;-72
2021/03/15 11:48:39;;;;;;;9.33;3.10;;;8.40;99.90;;;;;;5062955;28;20482;-71
2021/03/15 11:51:05;;;;;;;8.00;3.90;;;8.40;99.90;;;;;;5063790;28;20495;-71
2021/03/15 11:53:30;;;;;;;9.33;3.50;;;8.50;99.90;;;;;;5062228;28;20187;-70
2021/03/15 11:55:56;;;;;;;7.63;3.60;;;8.50;99.90;;;;;;5064154;28;20423;-71
2021/03/15 11:58:22;;;;;;;7.10;2.90;;;8.50;99.90;;;;;;5065055;28;20195;-68
2021/03/15 12:00:47;;;;;;;6.27;3.20;;;8.40;99.90;;;;;;5065765;28;20193;-69
2021/03/15 12:03:13;;;;;;;6.87;2.70;;;8.30;99.90;;;;;;5064693;28;20190;-73
2021/03/15 12:05:39;;;;;;;3.73;2.77;;;8.30;99.90;;;;;;5063964;28;20614;-69
2021/03/15 12:08:04;;;;;;;4.40;2.67;;;8.20;99.90;;;;;;5063987;28;20482;-70
2021/03/15 12:10:31;;;;;;;6.50;3.40;;;8.20;99.90;;;;;;5063902;28;20205;-69
2021/03/15 12:12:57;;;;;;;4.50;2.63;;;8.20;99.90;;;;;;5064405;28;20173;-69
2021/03/15 12:15:22;;;;;;;3.83;2.67;;;8.20;99.90;;;;;;5063693;28;20438;-71
2021/03/15 12:17:48;;;;;;;3.53;2.63;;;8.20;99.90;;;;;;5062857;28;20194;-72
2021/03/15 12:20:13;;;;;;;4.17;2.57;;;8.20;99.90;;;;;;5061949;28;20193;-71
2021/03/15 12:22:39;;;;;;;5.10;2.43;;;8.10;99.90;;;;;;5062595;28;20559;-71
2021/03/15 12:25:06;;;;;;;6.03;3.73;;;8.20;99.90;;;;;;5062304;28;20904;-71
2021/03/15 12:27:31;;;;;;;6.10;4.47;;;8.20;99.90;;;;;;5061813;28;20194;-70
2021/03/15 12:29:57;;;;;;;5.83;3.37;;;8.20;99.90;;;;;;5060852;28;20516;-70
2021/03/15 12:32:23;;;;;;;4.03;3.20;;;8.40;99.90;;;;;;5061586;28;20210;-70
2021/03/15 12:34:49;;;;;;;3.87;2.57;;;8.50;99.90;;;;;;5060671;28;20176;-70
2021/03/15 12:37:14;;;;;;;3.00;2.00;;;8.50;99.90;;;;;;5062789;28;20439;-70
2021/03/15 12:39:40;;;;;;;4.67;2.20;;;8.60;99.90;;;;;;5062315;28;20305;-71
2021/03/15 12:42:06;;;;;;;4.40;2.63;;;8.70;99.90;;;;;;5060539;28;20614;-71
2021/03/15 12:44:31;;;;;;;5.00;2.30;;;8.70;99.90;;;;;;5061491;28;20182;-71
2021/03/15 12:46:57;;;;;;;3.07;2.53;;;8.60;99.90;;;;;;5062511;28;20679;-71
2021/03/15 12:49:22;;;;;;;8.43;2.80;;;8.50;99.90;;;;;;5060122;28;20195;-72
2021/03/15 12:51:48;;;;;;;3.20;2.80;;;8.60;99.90;;;;;;5062133;28;20173;-71
2021/03/15 12:54:14;;;;;;;4.70;2.30;;;8.60;99.90;;;;;;5061385;28;20510;-71
2021/03/15 12:56:40;;;;;;;3.73;2.67;;;8.70;99.90;;;;;;5062017;28;20233;-71
2021/03/15 12:59:05;;;;;;;4.90;2.70;;;8.60;99.90;;;;;;5061197;28;20510;-71
2021/03/15 13:01:31;;;;;;;7.27;2.83;;;8.80;99.90;;;;;;5061896;28;20205;-71
2021/03/15 13:03:57;;;;;;;6.00;2.47;;;8.90;99.90;;;;;;5062130;28;20168;-71
2021/03/15 13:06:23;;;;;;;4.23;1.70;;;8.90;99.90;;;;;;5062918;28;20177;-70
2021/03/15 13:08:49;;;;;;;3.57;2.10;;;8.90;99.90;;;;;;5062300;28;20249;-71